Time;durP1;ratioP1;P1;durP2;ratioP2;P2;SDS_P1;SDS_P2;PMS_P1;PMS_P2;Temp;Humidity;BMP_temperature;BMP_pressure;BME280_temperature;BME280_humidity;BME280_pressure;Samples;Min_cycle;Max_cycle;Signal;HPM_P1;HPM_P2
2023/02/18 00:04:34;;;;;;;43.28;24.40;;;;;;;;;;10001104;28;20495;-67
2023/02/18 00:09:27;;;;;;;32.17;23.00;;;;;;;;;;10013274;28;20046;-67
2023/02/18 00:14:21;;;;;;;28.70;21.13;;;;;;;;;;10006104;28;20423;-67
2023/02/18 00:19:16;;;;;;;31.23;21.88;;;;;;;;;;9997855;28;20418;-67
2023/02/18 00:24:09;;;;;;;34.78;24.60;;;;;;;;;;10011195;28;20124;-67
2023/02/18 00:29:02;;;;;;;28.00;22.25;;;;;;;;;;10023160;28;20050;-66
2023/02/18 00:33:57;;;;;;;31.63;23.15;;;;;;;;;;10033967;28;20058;-67
2023/02/18 00:39:15;;;;;;;27.38;21.90;;;;;;;;;;10021739;28;20034;-67
2023/02/18 00:44:08;;;;;;;31.05;21.00;;;;;;;;;;10024453;28;20111;-67
2023/02/18 00:49:03;;;;;;;30.60;21.88;;;;;;;;;;10032508;28;20412;-66
2023/02/18 00:53:56;;;;;;;31.25;21.25;;;;;;;;;;10032215;28;20050;-67
2023/02/18 00:58:50;;;;;;;24.73;18.85;;;;;;;;;;10032531;28;20077;-66
2023/02/18 01:03:44;;;;;;;23.98;19.50;;;;;;;;;;10024386;28;20530;-67
2023/02/18 01:08:39;;;;;;;23.70;18.55;;;;;;;;;;10030542;28;20041;-66
2023/02/18 01:13:32;;;;;;;25.77;18.50;;;;;;;;;;10025638;28;20054;-66
2023/02/18 01:18:26;;;;;;;30.15;22.50;;;;;;;;;;10031504;28;20093;-66
2023/02/18 01:23:20;;;;;;;32.97;26.20;;;;;;;;;;10031176;28;20050;-67
2023/02/18 01:28:14;;;;;;;42.80;30.60;;;;;;;;;;10006073;28;20054;-66
2023/02/18 01:33:09;;;;;;;47.65;34.42;;;;;;;;;;10029172;28;20073;-66
2023/02/18 01:38:02;;;;;;;51.33;35.60;;;;;;;;;;10030926;28;20049;-66
2023/02/18 01:42:56;;;;;;;51.70;35.25;;;;;;;;;;10029650;28;20410;-66
2023/02/18 01:47:49;;;;;;;39.13;31.13;;;;;;;;;;10019226;28;20065;-66
2023/02/18 01:52:42;;;;;;;50.88;32.92;;;;;;;;;;10030182;28;20038;-66
2023/02/18 01:57:38;;;;;;;47.50;34.80;;;;;;;;;;10013171;28;20054;-66
2023/02/18 02:02:36;;;;;;;47.85;35.80;;;;;;;;;;10019360;28;20054;-65
2023/02/18 02:07:29;;;;;;;57.05;37.20;;;;;;;;;;10005867;28;20510;-66
2023/02/18 02:12:47;;;;;;;47.60;34.67;;;;;;;;;;10029777;28;20041;-65
2023/02/18 02:17:55;;;;;;;43.00;29.48;;;;;;;;;;10028337;28;20562;-65
2023/02/18 02:23:14;;;;;;;40.05;31.33;;;;;;;;;;10021678;28;20080;-66
2023/02/18 02:28:22;;;;;;;42.17;29.67;;;;;;;;;;10026699;28;20462;-66
2023/02/18 02:33:49;;;;;;;41.38;29.70;;;;;;;;;;10026963;28;20411;-65
2023/02/18 02:39:07;;;;;;;38.20;29.30;;;;;;;;;;10027394;28;20418;-65
2023/02/18 02:44:23;;;;;;;42.25;33.40;;;;;;;;;;10009437;28;20072;-65
2023/02/18 02:49:43;;;;;;;44.17;32.08;;;;;;;;;;10007496;28;20064;-67
2023/02/18 02:54:37;;;;;;;45.85;32.67;;;;;;;;;;10009337;28;20061;-66
2023/02/18 02:59:31;;;;;;;42.63;30.80;;;;;;;;;;10027196;28;20053;-67
2023/02/18 03:04:53;;;;;;;40.20;31.85;;;;;;;;;;10026451;28;20144;-67
2023/02/18 03:10:04;;;;;;;44.00;31.77;;;;;;;;;;10026607;28;20046;-67
2023/02/18 03:14:59;;;;;;;52.30;35.63;;;;;;;;;;10027037;28;20050;-66
2023/02/18 03:20:26;;;;;;;44.17;28.27;;;;;;;;;;10007504;28;20053;-66
2023/02/18 03:25:20;;;;;;;48.70;30.67;;;;;;;;;;9986422;28;20056;-66
2023/02/18 03:30:32;;;;;;;46.53;31.80;;;;;;;;;;10009100;28;20073;-66
2023/02/18 03:35:26;;;;;;;41.53;29.48;;;;;;;;;;10009291;28;20042;-66
2023/02/18 03:40:19;;;;;;;32.42;25.10;;;;;;;;;;10025786;28;20033;-66
2023/02/18 03:45:12;;;;;;;31.10;23.92;;;;;;;;;;10026885;28;20052;-66
2023/02/18 03:50:08;;;;;;;30.33;21.73;;;;;;;;;;10025295;28;20100;-65
2023/02/18 03:55:05;;;;;;;31.73;22.65;;;;;;;;;;10024754;28;20108;-66
2023/02/18 03:59:58;;;;;;;30.67;22.73;;;;;;;;;;10026188;28;20069;-66
2023/02/18 04:04:52;;;;;;;30.50;22.73;;;;;;;;;;10025738;28;20065;-66
2023/02/18 04:09:46;;;;;;;30.17;20.10;;;;;;;;;;10025708;28;20079;-66
2023/02/18 04:14:40;;;;;;;26.90;21.33;;;;;;;;;;10025936;28;20034;-66
2023/02/18 04:19:34;;;;;;;26.58;20.23;;;;;;;;;;10015453;28;20053;-66
2023/02/18 04:24:28;;;;;;;25.45;20.80;;;;;;;;;;10025527;28;20049;-66
2023/02/18 04:29:22;;;;;;;28.30;21.45;;;;;;;;;;10025394;28;20125;-67
2023/02/18 04:34:15;;;;;;;29.48;19.42;;;;;;;;;;10016629;28;20443;-67
2023/02/18 04:39:09;;;;;;;24.30;19.60;;;;;;;;;;10025372;28;20388;-66
2023/02/18 04:44:03;;;;;;;24.02;17.75;;;;;;;;;;10025483;28;20050;-66
2023/02/18 04:48:56;;;;;;;28.15;19.40;;;;;;;;;;10014092;28;20559;-67
2023/02/18 04:53:49;;;;;;;21.58;18.13;;;;;;;;;;10025171;28;20483;-67
2023/02/18 04:58:43;;;;;;;24.10;17.67;;;;;;;;;;10024535;28;20053;-67
2023/02/18 05:03:37;;;;;;;22.92;17.40;;;;;;;;;;10024289;28;20038;-65
2023/02/18 05:08:30;;;;;;;18.75;15.35;;;;;;;;;;10019198;28;20054;-66
2023/02/18 05:13:24;;;;;;;18.70;15.73;;;;;;;;;;10019988;28;20046;-66
2023/02/18 05:18:17;;;;;;;18.60;14.45;;;;;;;;;;10012277;28;20073;-66
2023/02/18 05:23:12;;;;;;;23.95;17.27;;;;;;;;;;10015856;28;20042;-64
2023/02/18 05:28:06;;;;;;;20.75;17.42;;;;;;;;;;10015476;28;20081;-65
2023/02/18 05:32:59;;;;;;;22.35;17.40;;;;;;;;;;10022806;28;20046;-67
2023/02/18 05:37:53;;;;;;;23.65;17.85;;;;;;;;;;10024320;28;20559;-67
2023/02/18 05:42:46;;;;;;;25.65;17.42;;;;;;;;;;10019897;28;20050;-65
2023/02/18 05:47:39;;;;;;;21.33;17.33;;;;;;;;;;10022338;28;20045;-66
2023/02/18 05:52:33;;;;;;;24.52;17.95;;;;;;;;;;10014895;28;20524;-65
2023/02/18 05:57:26;;;;;;;24.13;18.85;;;;;;;;;;10003318;28;20042;-66
2023/02/18 06:02:20;;;;;;;20.65;17.10;;;;;;;;;;10012295;28;20050;-66
2023/02/18 06:07:13;;;;;;;22.70;16.48;;;;;;;;;;10016477;28;20054;-65
2023/02/18 06:12:07;;;;;;;20.73;18.25;;;;;;;;;;10017221;28;20569;-65
2023/02/18 06:17:01;;;;;;;21.20;16.85;;;;;;;;;;10019075;28;20569;-67
2023/02/18 06:21:55;;;;;;;22.30;18.52;;;;;;;;;;10008123;28;20496;-65
2023/02/18 06:26:47;;;;;;;27.60;19.38;;;;;;;;;;10004432;28;20038;-67
2023/02/18 06:31:41;;;;;;;27.25;20.58;;;;;;;;;;9997648;28;20053;-66
2023/02/18 06:36:34;;;;;;;32.05;24.92;;;;;;;;;;10013199;28;20121;-67
2023/02/18 06:41:27;;;;;;;21.80;17.98;;;;;;;;;;10002259;28;20446;-65
2023/02/18 06:46:20;;;;;;;19.77;16.60;;;;;;;;;;10002771;28;20125;-65
2023/02/18 06:51:15;;;;;;;23.25;17.98;;;;;;;;;;10007505;28;20058;-65
2023/02/18 06:56:08;;;;;;;24.73;18.17;;;;;;;;;;10009238;28;20054;-65
2023/02/18 07:01:02;;;;;;;23.40;17.65;;;;;;;;;;10009083;28;20050;-65
2023/02/18 07:05:56;;;;;;;25.92;17.05;;;;;;;;;;10019523;28;20049;-65
2023/02/18 07:10:50;;;;;;;18.15;14.20;;;;;;;;;;10014882;28;20521;-66
2023/02/18 07:15:43;;;;;;;20.63;16.85;;;;;;;;;;10005577;28;20050;-65
2023/02/18 07:20:36;;;;;;;21.55;16.60;;;;;;;;;;10017572;28;20050;-65
2023/02/18 07:25:29;;;;;;;25.83;16.70;;;;;;;;;;10005049;28;20546;-65
2023/02/18 07:30:24;;;;;;;23.92;17.42;;;;;;;;;;10008773;28;20185;-63
2023/02/18 07:35:17;;;;;;;22.30;16.88;;;;;;;;;;10023876;28;20528;-64
2023/02/18 07:40:14;;;;;;;19.60;15.05;;;;;;;;;;10026211;28;20133;-64
2023/02/18 07:45:06;;;;;;;22.40;15.73;;;;;;;;;;10027000;28;20149;-65
2023/02/18 07:49:59;;;;;;;19.48;14.40;;;;;;;;;;10026865;28;20056;-62
2023/02/18 07:54:54;;;;;;;26.85;19.52;;;;;;;;;;10024116;28;20046;-61
2023/02/18 07:59:47;;;;;;;25.23;17.45;;;;;;;;;;10009115;28;20057;-61
2023/02/18 08:04:41;;;;;;;20.50;16.38;;;;;;;;;;10015812;28;20058;-60
2023/02/18 08:09:34;;;;;;;28.48;17.45;;;;;;;;;;10017421;28;20414;-61
2023/02/18 08:14:28;;;;;;;18.90;15.20;;;;;;;;;;10028414;28;20046;-61
2023/02/18 08:19:21;;;;;;;23.95;18.40;;;;;;;;;;10023050;28;20062;-61
2023/02/18 08:24:14;;;;;;;21.80;17.88;;;;;;;;;;10018485;28;20056;-60
2023/02/18 08:29:07;;;;;;;25.85;18.45;;;;;;;;;;10021475;28;20050;-60
2023/02/18 08:34:00;;;;;;;22.42;16.95;;;;;;;;;;10025380;28;20074;-60
2023/02/18 08:38:55;;;;;;;24.13;19.05;;;;;;;;;;10025134;28;20058;-60
2023/02/18 08:43:48;;;;;;;26.35;17.92;;;;;;;;;;10030755;28;20049;-60
2023/02/18 08:48:41;;;;;;;25.67;17.17;;;;;;;;;;10032932;28;20057;-60
2023/02/18 08:53:34;;;;;;;27.00;18.90;;;;;;;;;;10022425;28;20483;-60
2023/02/18 08:58:28;;;;;;;27.10;17.42;;;;;;;;;;10032573;28;20084;-60
2023/02/18 09:03:22;;;;;;;21.45;18.02;;;;;;;;;;10032425;28;20049;-60
2023/02/18 09:08:14;;;;;;;18.40;16.40;;;;;;;;;;10032041;28;20060;-60
2023/02/18 09:13:08;;;;;;;27.27;17.17;;;;;;;;;;10032779;28;20050;-60
2023/02/18 09:18:02;;;;;;;21.73;17.92;;;;;;;;;;10031115;28;20510;-61
2023/02/18 09:22:56;;;;;;;28.20;23.52;;;;;;;;;;10031643;28;20045;-61
2023/02/18 09:27:50;;;;;;;21.00;18.75;;;;;;;;;;10031617;28;20050;-61
2023/02/18 09:32:42;;;;;;;20.20;17.48;;;;;;;;;;10031541;28;20116;-61
2023/02/18 09:37:37;;;;;;;21.30;15.70;;;;;;;;;;10031329;28;20053;-61
2023/02/18 09:42:34;;;;;;;18.77;16.88;;;;;;;;;;10031053;28;20046;-61
2023/02/18 09:47:34;;;;;;;17.90;15.77;;;;;;;;;;10029423;28;20077;-61
2023/02/18 09:52:33;;;;;;;21.75;15.93;;;;;;;;;;10022279;28;20038;-61
2023/02/18 09:57:48;;;;;;;16.85;15.00;;;;;;;;;;10030537;28;20605;-61
2023/02/18 10:03:08;;;;;;;17.08;14.05;;;;;;;;;;10030283;28;20161;-61
2023/02/18 10:08:05;;;;;;;14.82;13.15;;;;;;;;;;10027750;28;20518;-60
2023/02/18 10:12:59;;;;;;;16.33;13.73;;;;;;;;;;10029718;28;20050;-60
2023/02/18 10:17:51;;;;;;;20.00;14.68;;;;;;;;;;10030085;28;20334;-61
2023/02/18 10:22:44;;;;;;;18.52;16.63;;;;;;;;;;10028878;28;20037;-60
2023/02/18 10:27:38;;;;;;;17.70;14.32;;;;;;;;;;10029317;28;20054;-60
2023/02/18 10:32:36;;;;;;;17.55;14.82;;;;;;;;;;10029085;28;20459;-60
2023/02/18 10:38:13;;;;;;;22.00;16.10;;;;;;;;;;10028936;28;20038;-60
2023/02/18 10:43:23;;;;;;;15.80;14.07;;;;;;;;;;10010328;28;20057;-61
2023/02/18 10:48:40;;;;;;;20.13;16.00;;;;;;;;;;10028673;28;20108;-61
2023/02/18 10:53:35;;;;;;;17.17;15.38;;;;;;;;;;10028788;28;20077;-61
2023/02/18 10:58:36;;;;;;;18.77;16.15;;;;;;;;;;10023156;28;20049;-61
2023/02/18 11:03:37;;;;;;;17.95;15.63;;;;;;;;;;10021266;28;20478;-60
2023/02/18 11:08:42;;;;;;;22.30;16.40;;;;;;;;;;10028988;28;20042;-61
2023/02/18 11:13:35;;;;;;;17.38;15.18;;;;;;;;;;10026325;28;20046;-61
2023/02/18 11:18:40;;;;;;;19.20;17.30;;;;;;;;;;10010428;28;20053;-60
2023/02/18 11:23:45;;;;;;;20.50;17.42;;;;;;;;;;10027579;28;20129;-60
2023/02/18 11:28:51;;;;;;;21.45;17.48;;;;;;;;;;10026676;28;20050;-60
2023/02/18 11:33:53;;;;;;;29.65;18.42;;;;;;;;;;10025960;28;20092;-60
2023/02/18 11:38:50;;;;;;;24.33;20.35;;;;;;;;;;10026311;28;20042;-61
2023/02/18 11:43:48;;;;;;;25.55;20.48;;;;;;;;;;10025729;28;20045;-61
2023/02/18 11:48:42;;;;;;;24.25;20.60;;;;;;;;;;10020700;28;20085;-61
2023/02/18 11:53:35;;;;;;;20.77;18.60;;;;;;;;;;10026576;28;20069;-61
2023/02/18 11:58:40;;;;;;;23.67;19.77;;;;;;;;;;10026391;28;20050;-60
2023/02/18 12:04:08;;;;;;;21.88;19.52;;;;;;;;;;10024800;28;20049;-60
2023/02/18 12:09:05;;;;;;;22.58;19.98;;;;;;;;;;9967147;28;20050;-60
2023/02/18 12:13:58;;;;;;;22.20;19.40;;;;;;;;;;10026308;28;20058;-60
2023/02/18 12:19:09;;;;;;;23.73;20.15;;;;;;;;;;10030092;28;20430;-60
2023/02/18 12:24:20;;;;;;;25.48;20.25;;;;;;;;;;10019636;28;20057;-60
2023/02/18 12:29:34;;;;;;;25.65;20.80;;;;;;;;;;10012011;28;20499;-60
2023/02/18 12:34:38;;;;;;;24.15;21.25;;;;;;;;;;10024014;28;20057;-59
2023/02/18 12:39:45;;;;;;;29.00;22.30;;;;;;;;;;10003627;28;20054;-60
2023/02/18 12:44:42;;;;;;;25.23;21.55;;;;;;;;;;10005859;28;20054;-60
2023/02/18 12:49:42;;;;;;;26.20;21.48;;;;;;;;;;10014748;28;20054;-60
2023/02/18 12:55:01;;;;;;;25.20;21.05;;;;;;;;;;10014665;28;20184;-60
2023/02/18 13:00:23;;;;;;;23.85;21.38;;;;;;;;;;10005290;28;20468;-60
2023/02/18 13:05:31;;;;;;;22.55;20.05;;;;;;;;;;10011429;28;20045;-60
2023/02/18 13:10:33;;;;;;;22.80;20.33;;;;;;;;;;9995040;28;20069;-59
2023/02/18 13:15:29;;;;;;;23.77;20.02;;;;;;;;;;10001345;28;20487;-59
2023/02/18 13:20:57;;;;;;;22.08;19.75;;;;;;;;;;9994910;28;20038;-60
2023/02/18 13:25:57;;;;;;;25.55;19.52;;;;;;;;;;10004688;28;20077;-59
2023/02/18 13:31:01;;;;;;;28.70;20.15;;;;;;;;;;9998763;28;20049;-59
2023/02/18 13:36:08;;;;;;;20.33;17.55;;;;;;;;;;9996847;28;20081;-59
2023/02/18 13:41:01;;;;;;;25.42;19.30;;;;;;;;;;10005619;28;20046;-59
2023/02/18 13:46:13;;;;;;;27.92;19.15;;;;;;;;;;10005100;28;20414;-60
2023/02/18 13:51:06;;;;;;;24.13;18.38;;;;;;;;;;10001729;28;20081;-59
2023/02/18 13:56:09;;;;;;;26.00;19.90;;;;;;;;;;10004532;28;20046;-60
2023/02/18 14:01:05;;;;;;;24.83;18.83;;;;;;;;;;10012458;28;20086;-60
2023/02/18 14:05:59;;;;;;;22.25;18.70;;;;;;;;;;10014659;28;20061;-60
2023/02/18 14:11:10;;;;;;;23.92;19.55;;;;;;;;;;10013234;28;20458;-60
2023/02/18 14:16:04;;;;;;;23.60;19.13;;;;;;;;;;9998383;28;20419;-59
2023/02/18 14:21:18;;;;;;;26.98;21.75;;;;;;;;;;10016534;28;20045;-60
2023/02/18 14:26:13;;;;;;;23.73;19.50;;;;;;;;;;10015614;28;20418;-59
2023/02/18 14:31:12;;;;;;;24.35;20.50;;;;;;;;;;10008750;28;20058;-60
2023/02/18 14:36:14;;;;;;;22.52;20.10;;;;;;;;;;10006559;28;20055;-59
2023/02/18 14:41:33;;;;;;;27.58;22.83;;;;;;;;;;9999461;28;20053;-59
2023/02/18 14:46:53;;;;;;;29.30;22.85;;;;;;;;;;10002531;28;20074;-59
2023/02/18 14:51:49;;;;;;;29.83;22.48;;;;;;;;;;9992748;28;20484;-59
2023/02/18 14:57:03;;;;;;;26.30;22.58;;;;;;;;;;10006158;28;20054;-59
2023/02/18 15:01:57;;;;;;;25.98;21.92;;;;;;;;;;9995630;28;20137;-59
2023/02/18 15:07:04;;;;;;;28.85;22.67;;;;;;;;;;9998104;28;20111;-60
2023/02/18 15:12:04;;;;;;;26.40;22.73;;;;;;;;;;10003150;28;20082;-59
2023/02/18 15:16:58;;;;;;;28.38;22.67;;;;;;;;;;10007119;28;20390;-59
2023/02/18 15:21:54;;;;;;;24.88;22.17;;;;;;;;;;9995872;28;20140;-59
2023/02/18 15:26:50;;;;;;;29.15;22.48;;;;;;;;;;9999930;28;20120;-59
2023/02/18 15:31:43;;;;;;;24.98;22.27;;;;;;;;;;10011484;28;20143;-60
2023/02/18 15:36:37;;;;;;;28.65;22.55;;;;;;;;;;10006503;28;20050;-60
2023/02/18 15:41:31;;;;;;;27.02;23.48;;;;;;;;;;10012273;28;20050;-59
2023/02/18 15:46:25;;;;;;;33.05;24.17;;;;;;;;;;10014394;28;20054;-59
2023/02/18 15:51:21;;;;;;;24.90;22.15;;;;;;;;;;10005380;28;20046;-60
2023/02/18 15:56:39;;;;;;;33.47;22.73;;;;;;;;;;10003421;28;20050;-59
2023/02/18 16:01:33;;;;;;;30.55;22.45;;;;;;;;;;10002559;28;20415;-60
2023/02/18 16:06:28;;;;;;;29.52;22.75;;;;;;;;;;10008615;28;20443;-60
2023/02/18 16:11:23;;;;;;;26.80;22.77;;;;;;;;;;10006582;28;20145;-60
2023/02/18 16:16:32;;;;;;;28.08;22.95;;;;;;;;;;10009052;28;20144;-59
2023/02/18 16:21:38;;;;;;;27.30;22.10;;;;;;;;;;10005878;28;20053;-59
2023/02/18 16:26:49;;;;;;;30.15;22.73;;;;;;;;;;10011072;28;20302;-59
2023/02/18 16:32:02;;;;;;;31.65;22.38;;;;;;;;;;10005383;28;20507;-60
2023/02/18 16:42:11;;;;;;;30.38;24.83;;;;;;;;;;10015482;28;20464;-59
2023/02/18 16:47:05;;;;;;;26.60;22.88;;;;;;;;;;10016686;28;20391;-60
2023/02/18 16:52:01;;;;;;;32.47;22.60;;;;;;;;;;10012728;28;20376;-59
2023/02/18 16:56:54;;;;;;;30.60;25.27;;;;;;;;;;10013663;28;20058;-59
2023/02/18 17:01:47;;;;;;;33.42;25.38;;;;;;;;;;10011089;28;20069;-59
2023/02/18 17:06:42;;;;;;;31.52;24.98;;;;;;;;;;10013013;28;20049;-60
2023/02/18 17:11:35;;;;;;;29.88;25.88;;;;;;;;;;10008853;28;20042;-59
2023/02/18 17:16:29;;;;;;;29.42;24.85;;;;;;;;;;10011859;28;20042;-60
2023/02/18 17:21:24;;;;;;;32.88;26.27;;;;;;;;;;10013227;28;20557;-60
2023/02/18 17:26:20;;;;;;;32.58;25.90;;;;;;;;;;10015279;28;20121;-60
2023/02/18 17:31:18;;;;;;;33.42;26.75;;;;;;;;;;10012632;28;20046;-60
2023/02/18 17:36:10;;;;;;;35.42;29.20;;;;;;;;;;10019554;28;20502;-60
2023/02/18 17:41:06;;;;;;;39.50;29.95;;;;;;;;;;10019168;28;20117;-60
2023/02/18 17:45:59;;;;;;;40.60;30.58;;;;;;;;;;10013472;28;20055;-60
2023/02/18 17:50:53;;;;;;;40.90;30.77;;;;;;;;;;10018957;28;20049;-61
2023/02/18 17:55:48;;;;;;;37.80;29.52;;;;;;;;;;10010449;28;20054;-61
2023/02/18 18:00:53;;;;;;;50.78;34.20;;;;;;;;;;10010532;28;20050;-60
2023/02/18 18:05:48;;;;;;;52.80;34.95;;;;;;;;;;10011204;28;20109;-60
2023/02/18 18:10:46;;;;;;;42.95;29.90;;;;;;;;;;10011707;28;20038;-60
2023/02/18 18:15:42;;;;;;;40.15;30.58;;;;;;;;;;10012832;28;20053;-60
2023/02/18 18:20:35;;;;;;;47.17;30.73;;;;;;;;;;10016189;28;20048;-59
2023/02/18 18:25:33;;;;;;;45.00;31.25;;;;;;;;;;10018142;28;20041;-60
2023/02/18 18:30:28;;;;;;;42.65;31.60;;;;;;;;;;10008852;28;20060;-59
2023/02/18 18:35:30;;;;;;;51.40;33.13;;;;;;;;;;10015881;28;20053;-59
2023/02/18 18:40:30;;;;;;;46.53;32.10;;;;;;;;;;10013085;28;20415;-59
2023/02/18 18:45:27;;;;;;;51.47;35.35;;;;;;;;;;10026814;28;20045;-60
2023/02/18 18:50:23;;;;;;;50.88;35.08;;;;;;;;;;10029015;28;20556;-59
2023/02/18 18:55:21;;;;;;;46.58;33.80;;;;;;;;;;10028630;28;20104;-59
2023/02/18 19:00:16;;;;;;;67.53;46.53;;;;;;;;;;10027710;28;20530;-59
2023/02/18 19:05:19;;;;;;;80.38;58.85;;;;;;;;;;10028075;28;20465;-61
2023/02/18 19:10:14;;;;;;;76.57;53.05;;;;;;;;;;10011238;28;20061;-60
2023/02/18 19:15:28;;;;;;;106.40;75.00;;;;;;;;;;9999312;28;20057;-60
2023/02/18 19:20:25;;;;;;;91.72;63.80;;;;;;;;;;10020386;28;20073;-60
2023/02/18 19:25:19;;;;;;;93.78;63.95;;;;;;;;;;10012920;28;20044;-60
2023/02/18 19:30:21;;;;;;;84.68;57.00;;;;;;;;;;10021002;28;20057;-60
2023/02/18 19:35:22;;;;;;;84.47;56.50;;;;;;;;;;10013687;28;20053;-61
2023/02/18 19:40:21;;;;;;;75.05;51.58;;;;;;;;;;10005419;28;20422;-60
2023/02/18 19:45:16;;;;;;;77.95;54.28;;;;;;;;;;9989210;28;20042;-60
2023/02/18 19:50:13;;;;;;;84.82;58.90;;;;;;;;;;10006335;28;20414;-60
2023/02/18 19:55:07;;;;;;;84.38;56.70;;;;;;;;;;10016703;28;20054;-60
2023/02/18 20:00:01;;;;;;;84.43;58.85;;;;;;;;;;10009603;28;20041;-60
2023/02/18 20:05:05;;;;;;;90.82;63.80;;;;;;;;;;10008371;28;20392;-59
2023/02/18 20:09:58;;;;;;;73.25;50.08;;;;;;;;;;10014915;28;20053;-60
2023/02/18 20:14:52;;;;;;;73.38;51.92;;;;;;;;;;10018285;28;20053;-60
2023/02/18 20:19:46;;;;;;;65.90;46.63;;;;;;;;;;10009753;28;20503;-59
2023/02/18 20:24:39;;;;;;;66.03;48.17;;;;;;;;;;10012408;28;20058;-59
2023/02/18 20:29:33;;;;;;;64.55;45.95;;;;;;;;;;10004338;28;20126;-58
2023/02/18 20:34:25;;;;;;;55.13;42.58;;;;;;;;;;9999811;28;20077;-61
2023/02/18 20:39:21;;;;;;;53.75;39.15;;;;;;;;;;10010539;28;20054;-62
2023/02/18 20:44:15;;;;;;;61.20;45.65;;;;;;;;;;10023412;28;20103;-60
2023/02/18 20:49:14;;;;;;;61.05;44.35;;;;;;;;;;10018870;28;20050;-61
2023/02/18 20:54:09;;;;;;;59.30;39.33;;;;;;;;;;10022363;28;20050;-60
2023/02/18 20:59:02;;;;;;;58.75;43.50;;;;;;;;;;10019353;28;20141;-60
2023/02/18 21:03:56;;;;;;;56.42;41.65;;;;;;;;;;10020610;28;20054;-63
2023/02/18 21:08:50;;;;;;;57.38;41.42;;;;;;;;;;10012851;28;20069;-60
2023/02/18 21:13:45;;;;;;;55.38;42.97;;;;;;;;;;10019246;28;20503;-60
2023/02/18 21:18:37;;;;;;;57.17;43.25;;;;;;;;;;10019555;28;20137;-60
2023/02/18 21:23:30;;;;;;;67.53;46.03;;;;;;;;;;10022197;28;20081;-61
2023/02/18 21:28:24;;;;;;;64.72;47.30;;;;;;;;;;10023859;28;20054;-62
2023/02/18 21:33:18;;;;;;;57.05;42.13;;;;;;;;;;10021714;28;20047;-62
2023/02/18 21:38:11;;;;;;;58.00;43.45;;;;;;;;;;10013738;28;20509;-62
2023/02/18 21:43:04;;;;;;;56.78;42.88;;;;;;;;;;10016026;28;20069;-61
2023/02/18 21:49:00;;;;;;;58.22;43.10;;;;;;;;;;10003991;28;20070;-59
2023/02/18 21:53:11;;;;;;;67.28;46.42;;;;;;;;;;10010402;28;20491;-62
2023/02/18 21:58:04;;;;;;;62.85;44.97;;;;;;;;;;10014099;28;20089;-61
2023/02/18 22:02:57;;;;;;;66.57;50.40;;;;;;;;;;10014100;28;20116;-61
2023/02/18 22:07:50;;;;;;;62.10;46.92;;;;;;;;;;10007209;28;20046;-61
2023/02/18 22:12:44;;;;;;;52.17;38.90;;;;;;;;;;10012452;28;20054;-61
2023/02/18 22:17:38;;;;;;;63.53;42.88;;;;;;;;;;10010635;28;20490;-61
2023/02/18 22:22:31;;;;;;;61.60;42.88;;;;;;;;;;10015116;28;20418;-61
2023/02/18 22:27:25;;;;;;;62.05;43.70;;;;;;;;;;10016142;28;20081;-61
2023/02/18 22:32:19;;;;;;;53.38;40.53;;;;;;;;;;10019248;28;20120;-61
2023/02/18 22:37:13;;;;;;;50.58;39.45;;;;;;;;;;10022301;28;20060;-61
2023/02/18 22:42:07;;;;;;;53.63;39.45;;;;;;;;;;10016020;28;20077;-61
2023/02/18 22:47:00;;;;;;;53.75;39.78;;;;;;;;;;10008315;28;20053;-61
2023/02/18 22:51:54;;;;;;;60.05;39.90;;;;;;;;;;10013703;28;20065;-61
2023/02/18 22:56:49;;;;;;;48.08;35.40;;;;;;;;;;10017594;28;20049;-61
2023/02/18 23:01:47;;;;;;;44.25;35.30;;;;;;;;;;10011048;28;20034;-61
2023/02/18 23:06:44;;;;;;;48.70;33.88;;;;;;;;;;10017227;28;20068;-61
2023/02/18 23:11:37;;;;;;;49.25;34.63;;;;;;;;;;10014776;28;20038;-61
2023/02/18 23:16:30;;;;;;;52.33;38.28;;;;;;;;;;10020592;28;20054;-61
2023/02/18 23:21:23;;;;;;;53.38;39.90;;;;;;;;;;10017104;28;20052;-61
2023/02/18 23:26:18;;;;;;;50.53;37.78;;;;;;;;;;10022926;28;20482;-61
2023/02/18 23:31:11;;;;;;;47.78;36.13;;;;;;;;;;10027990;28;20079;-60
2023/02/18 23:36:14;;;;;;;55.63;38.70;;;;;;;;;;10026458;28;20076;-61
2023/02/18 23:41:06;;;;;;;51.33;37.65;;;;;;;;;;10028305;28;20509;-60
2023/02/18 23:46:00;;;;;;;51.05;38.20;;;;;;;;;;10024287;28;20065;-61
2023/02/18 23:51:00;;;;;;;56.10;40.33;;;;;;;;;;10026059;28;20059;-61
2023/02/18 23:56:00;;;;;;;60.38;40.20;;;;;;;;;;10026267;28;20108;-60
